Time;durP1;ratioP1;P1;durP2;ratioP2;P2;SDS_P1;SDS_P2;PMS_P1;PMS_P2;Temp;Humidity;BMP_temperature;BMP_pressure;BME280_temperature;BME280_humidity;BME280_pressure;Samples;Min_cycle;Max_cycle;Signal;HPM_P1;HPM_P2
2023/06/24 00:00:47;;;;;;;36.20;21.20;;;;;;;19.49;98.71;100509.33;110079;1273;22176;-61
2023/06/24 00:03:38;;;;;;;32.50;18.90;;;;;;;19.48;98.77;100508.42;110100;1273;22177;-61
2023/06/24 00:06:10;;;;;;;37.40;21.20;;;;;;;19.47;98.66;100513.27;110105;1267;23337;-62
2023/06/24 00:08:41;;;;;;;37.40;19.60;;;;;;;19.46;98.69;100517.05;110108;1273;22393;-62
2023/06/24 00:11:12;;;;;;;36.70;19.60;;;;;;;19.43;98.53;100511.46;110106;1271;23040;-61
2023/06/24 00:13:44;;;;;;;33.80;19.20;;;;;;;19.38;98.60;100516.72;110068;1257;22292;-61
2023/06/24 00:16:15;;;;;;;34.10;16.20;;;;;;;19.35;98.69;100516.40;110083;1267;23058;-61
2023/06/24 00:18:46;;;;;;;29.80;16.20;;;;;;;19.33;98.69;100515.23;110122;1267;22191;-59
2023/06/24 00:21:17;;;;;;;28.20;16.40;;;;;;;19.29;98.58;100511.86;110095;1267;22403;-58
2023/06/24 00:23:49;;;;;;;30.00;15.90;;;;;;;19.26;98.60;100507.42;110075;1263;22218;-61
2023/06/24 00:26:20;;;;;;;29.10;14.10;;;;;;;19.21;98.58;100512.17;110092;1262;22918;-62
2023/06/24 00:28:51;;;;;;;32.50;14.30;;;;;;;19.15;98.52;100515.73;110085;1276;22399;-61
2023/06/24 00:31:22;;;;;;;28.00;13.10;;;;;;;19.12;98.64;100511.77;110095;1270;22269;-62
2023/06/24 00:33:53;;;;;;;27.50;13.10;;;;;;;19.11;98.53;100513.30;110078;1267;22236;-59
2023/06/24 00:36:24;;;;;;;27.50;13.40;;;;;;;19.09;98.28;100515.30;110123;1273;22149;-61
2023/06/24 00:38:56;;;;;;;24.00;12.00;;;;;;;19.06;98.34;100515.23;109459;1273;22542;-60
2023/06/24 00:41:27;;;;;;;23.00;11.30;;;;;;;19.02;98.35;100515.89;106155;1278;24297;-61
2023/06/24 00:43:59;;;;;;;23.60;12.10;;;;;;;18.99;98.39;100517.56;106071;1273;24351;-62
2023/06/24 00:46:33;;;;;;;24.40;11.40;;;;;;;18.97;98.42;100519.70;106072;1273;24377;-61
2023/06/24 00:49:03;;;;;;;26.20;12.80;;;;;;;18.93;98.48;100520.72;106087;1274;23261;-58
2023/06/24 00:51:36;;;;;;;25.30;12.50;;;;;;;18.88;98.67;100527.52;106099;1264;22525;-59
2023/06/24 00:54:07;;;;;;;23.80;12.10;;;;;;;18.82;98.62;100536.67;106058;1274;24272;-59
2023/06/24 00:56:39;;;;;;;27.70;14.80;;;;;;;18.78;98.93;100535.95;106162;1273;22582;-59
2023/06/24 00:59:11;;;;;;;29.70;13.80;;;;;;;18.75;99.00;100538.70;106152;1264;22643;-61
2023/06/24 01:01:44;;;;;;;28.60;14.90;;;;;;;18.73;99.02;100538.91;110081;1278;22225;-61
2023/06/24 01:04:16;;;;;;;28.60;13.40;;;;;;;18.71;99.08;100540.69;110117;1264;22463;-61
2023/06/24 01:06:47;;;;;;;28.30;13.80;;;;;;;18.69;99.11;100540.67;110085;1269;22310;-60
2023/06/24 01:09:18;;;;;;;26.00;15.10;;;;;;;18.65;99.34;100544.77;110108;1264;23041;-59
2023/06/24 01:11:49;;;;;;;25.00;14.10;;;;;;;18.61;99.42;100548.19;110111;1267;22178;-61
2023/06/24 01:14:22;;;;;;;25.90;12.70;;;;;;;18.57;99.44;100551.04;110090;1263;22206;-60
2023/06/24 01:17:01;;;;;;;22.60;11.40;;;;;;;18.53;99.34;100556.52;110118;1271;22594;-59
2023/06/24 01:19:53;;;;;;;21.20;10.60;;;;;;;18.51;99.54;100558.03;110101;1269;22457;-61
2023/06/24 01:22:46;;;;;;;21.40;10.00;;;;;;;18.48;99.37;100564.64;110091;1274;22169;-60
2023/06/24 01:25:34;;;;;;;21.50;10.00;;;;;;;18.45;99.49;100569.18;110084;1267;22248;-62
2023/06/24 01:28:26;;;;;;;27.90;9.20;;;;;;;18.43;99.47;100578.50;110126;1267;22144;-60
2023/06/24 01:31:34;;;;;;;20.70;7.80;;;;;;;18.43;99.37;100586.47;110080;1267;23025;-59
2023/06/24 01:34:13;;;;;;;19.40;6.80;;;;;;;18.40;99.18;100588.20;110082;1267;22235;-61
2023/06/24 01:36:50;;;;;;;16.70;7.70;;;;;;;18.41;99.13;100596.08;110110;1273;22279;-59
2023/06/24 01:39:26;;;;;;;21.30;7.90;;;;;;;18.42;99.10;100601.30;110122;1263;22430;-60
2023/06/24 01:42:04;;;;;;;20.10;7.10;;;;;;;18.38;99.22;100603.43;110050;1263;22159;-60
2023/06/24 01:44:36;;;;;;;16.90;6.70;;;;;;;18.37;99.21;100599.90;110090;1267;23058;-60
2023/06/24 01:47:09;;;;;;;20.00;6.70;;;;;;;18.35;99.26;100603.51;110120;1271;22338;-61
2023/06/24 01:49:43;;;;;;;15.50;6.90;;;;;;;18.33;99.40;100606.51;108895;1278;22533;-62
2023/06/24 01:52:15;;;;;;;14.70;5.40;;;;;;;18.27;99.55;100609.52;110098;1271;22190;-60
2023/06/24 01:54:48;;;;;;;15.50;5.70;;;;;;;18.19;99.42;100613.42;110089;1270;22201;-62
2023/06/24 01:57:21;;;;;;;15.40;5.60;;;;;;;18.08;99.60;100611.29;110121;1271;23285;-61
2023/06/24 01:59:54;;;;;;;13.30;5.20;;;;;;;17.99;99.38;100619.80;110086;1274;22305;-62
2023/06/24 02:02:29;;;;;;;13.00;4.70;;;;;;;17.92;99.49;100622.77;110115;1272;22222;-59
2023/06/24 02:05:02;;;;;;;12.70;4.90;;;;;;;17.84;99.45;100629.63;110110;1267;22282;-62
2023/06/24 02:07:34;;;;;;;9.90;4.10;;;;;;;17.74;99.13;100629.21;110087;1264;22318;-61
2023/06/24 02:10:07;;;;;;;13.80;4.80;;;;;;;17.59;98.83;100625.52;110095;1273;22259;-59
2023/06/24 02:12:38;;;;;;;13.30;4.90;;;;;;;17.47;98.85;100626.15;110074;1269;22349;-61
2023/06/24 02:15:11;;;;;;;12.50;4.60;;;;;;;17.36;99.05;100630.17;110150;1266;23022;-60
2023/06/24 02:17:43;;;;;;;14.60;4.40;;;;;;;17.24;99.19;100632.58;110113;1275;22295;-61
2023/06/24 02:20:16;;;;;;;13.80;4.70;;;;;;;17.17;99.32;100635.15;110096;1271;22660;-62
2023/06/24 02:22:48;;;;;;;17.60;5.20;;;;;;;17.13;99.42;100639.82;110116;1273;22238;-63
2023/06/24 02:25:20;;;;;;;11.60;4.30;;;;;;;17.12;99.57;100636.44;110122;1267;22622;-62
2023/06/24 02:27:52;;;;;;;13.20;5.10;;;;;;;17.10;99.51;100637.86;110080;1262;22937;-62
2023/06/24 02:30:24;;;;;;;13.70;5.30;;;;;;;17.06;99.32;100639.16;110103;1272;22175;-62
2023/06/24 02:32:56;;;;;;;13.20;4.40;;;;;;;17.01;99.33;100641.63;110112;1267;22270;-62
2023/06/24 02:35:26;;;;;;;11.60;4.50;;;;;;;16.98;98.94;100648.75;110087;1271;22207;-60
2023/06/24 02:37:57;;;;;;;10.80;3.60;;;;;;;16.90;98.86;100647.62;110130;1271;22159;-61
2023/06/24 02:40:29;;;;;;;14.20;3.90;;;;;;;16.82;98.56;100653.63;110138;1260;22331;-63
2023/06/24 02:43:01;;;;;;;12.90;3.90;;;;;;;16.73;98.59;100659.01;110090;1273;22163;-61
2023/06/24 02:45:32;;;;;;;14.00;4.00;;;;;;;16.66;98.53;100656.80;110072;1270;22414;-62
2023/06/24 02:48:03;;;;;;;11.80;4.00;;;;;;;16.61;98.58;100661.71;110102;1275;22327;-61
2023/06/24 02:50:36;;;;;;;12.50;4.10;;;;;;;16.55;98.56;100659.14;110093;1270;23124;-61
2023/06/24 02:53:07;;;;;;;10.20;3.20;;;;;;;16.48;98.58;100671.45;110105;1272;22356;-62
2023/06/24 02:55:40;;;;;;;12.20;4.10;;;;;;;16.41;98.73;100674.36;110120;1278;22354;-61
2023/06/24 02:58:11;;;;;;;15.70;3.40;;;;;;;16.34;98.94;100676.59;110121;1274;22165;-61
2023/06/24 03:00:42;;;;;;;15.20;4.10;;;;;;;16.33;98.88;100682.58;110087;1264;22507;-63
2023/06/24 03:03:13;;;;;;;12.60;3.80;;;;;;;16.29;98.97;100686.37;110084;1273;22203;-61
2023/06/24 03:05:48;;;;;;;12.90;3.80;;;;;;;16.22;98.77;100686.77;110101;1270;22229;-61
2023/06/24 03:08:19;;;;;;;15.50;4.10;;;;;;;16.19;98.72;100692.68;110066;1262;22450;-60
2023/06/24 03:10:50;;;;;;;12.70;3.50;;;;;;;16.16;98.69;100692.16;110070;1273;22162;-62
2023/06/24 03:13:21;;;;;;;12.90;3.80;;;;;;;16.13;98.40;100693.42;110104;1273;23408;-59
2023/06/24 03:15:52;;;;;;;11.10;3.70;;;;;;;16.07;98.44;100696.85;110112;1269;22229;-62
2023/06/24 03:18:23;;;;;;;12.60;4.20;;;;;;;16.02;98.32;100702.04;110110;1263;22268;-61
2023/06/24 03:20:54;;;;;;;16.00;4.90;;;;;;;15.97;98.50;100703.87;110046;1271;22190;-62
2023/06/24 03:23:24;;;;;;;11.70;3.90;;;;;;;15.95;98.61;100713.27;110138;1263;22182;-61
2023/06/24 03:25:55;;;;;;;11.60;4.00;;;;;;;15.91;98.46;100717.46;110071;1271;22177;-61
2023/06/24 03:28:27;;;;;;;17.90;4.30;;;;;;;15.91;98.43;100731.13;110134;1263;22223;-62
2023/06/24 03:30:57;;;;;;;11.40;3.30;;;;;;;15.88;98.37;100734.80;110114;1271;22482;-62
2023/06/24 03:33:28;;;;;;;12.20;3.90;;;;;;;15.85;98.29;100743.70;110126;1271;23103;-63
2023/06/24 03:35:59;;;;;;;12.00;4.00;;;;;;;15.80;98.46;100746.67;110128;1267;22141;-61
2023/06/24 03:38:30;;;;;;;12.50;3.70;;;;;;;15.78;98.71;100745.48;110113;1272;22292;-62
2023/06/24 03:41:01;;;;;;;12.90;4.10;;;;;;;15.74;98.92;100749.50;110099;1263;22221;-63
2023/06/24 03:43:32;;;;;;;11.50;4.10;;;;;;;15.70;99.30;100755.22;110140;1264;23166;-62
2023/06/24 03:46:03;;;;;;;12.20;3.90;;;;;;;15.67;99.23;100762.35;110149;1270;22382;-62
2023/06/24 03:48:35;;;;;;;11.80;3.40;;;;;;;15.64;99.49;100765.83;110106;1270;22944;-62
2023/06/24 03:51:06;;;;;;;12.20;3.50;;;;;;;15.62;99.64;100765.80;110118;1267;22229;-62
2023/06/24 03:53:37;;;;;;;12.20;4.30;;;;;;;15.60;99.84;100765.07;110100;1270;22433;-61
2023/06/24 03:56:08;;;;;;;9.80;2.70;;;;;;;15.58;99.90;100763.02;110114;1263;22345;-61
2023/06/24 03:58:39;;;;;;;14.80;3.40;;;;;;;15.56;100.00;100765.30;110127;1264;22284;-62
2023/06/24 04:01:10;;;;;;;11.50;3.70;;;;;;;15.55;100.00;100767.64;110115;1275;22776;-60
2023/06/24 04:03:41;;;;;;;12.50;3.20;;;;;;;15.54;100.00;100768.82;110124;1271;23089;-61
2023/06/24 04:06:12;;;;;;;10.30;3.70;;;;;;;15.54;100.00;100770.05;110121;1267;22195;-61
2023/06/24 04:08:44;;;;;;;15.20;3.60;;;;;;;15.53;100.00;100772.03;110145;1270;22349;-61
2023/06/24 04:11:14;;;;;;;17.10;3.80;;;;;;;15.52;100.00;100776.89;110113;1270;22403;-61
2023/06/24 04:13:45;;;;;;;11.80;4.10;;;;;;;15.51;100.00;100773.77;110093;1264;23040;-62
2023/06/24 04:16:16;;;;;;;10.30;3.00;;;;;;;15.51;100.00;100774.12;110124;1264;23291;-61
2023/06/24 04:18:47;;;;;;;13.00;3.00;;;;;;;15.50;100.00;100782.13;110143;1267;22146;-63
2023/06/24 04:21:18;;;;;;;11.90;3.80;;;;;;;15.49;100.00;100785.35;110112;1263;22181;-59
2023/06/24 04:23:49;;;;;;;15.80;4.90;;;;;;;15.48;100.00;100782.42;110140;1267;22363;-63
2023/06/24 04:26:20;;;;;;;12.70;3.90;;;;;;;15.47;100.00;100785.20;110086;1263;22241;-62
2023/06/24 04:28:51;;;;;;;11.00;3.70;;;;;;;15.46;100.00;100784.88;110092;1278;22190;-61
2023/06/24 04:31:21;;;;;;;13.00;3.60;;;;;;;15.45;100.00;100790.65;110128;1271;22303;-62
2023/06/24 04:33:52;;;;;;;17.50;3.60;;;;;;;15.45;100.00;100791.53;110108;1271;22452;-61
2023/06/24 04:36:23;;;;;;;13.50;3.70;;;;;;;15.46;100.00;100794.45;110112;1271;22224;-61
2023/06/24 04:38:54;;;;;;;12.50;4.50;;;;;;;15.46;100.00;100796.29;110069;1264;22208;-60
2023/06/24 04:41:25;;;;;;;12.80;3.80;;;;;;;15.45;100.00;100807.69;110071;1272;22190;-63
2023/06/24 04:43:56;;;;;;;11.30;3.80;;;;;;;15.43;100.00;100809.00;110124;1264;22204;-63
2023/06/24 04:46:27;;;;;;;12.50;4.30;;;;;;;15.43;100.00;100813.54;107696;1274;22555;-61
2023/06/24 04:48:58;;;;;;;11.50;3.70;;;;;;;15.44;100.00;100814.61;106040;1273;25526;-62
2023/06/24 04:51:29;;;;;;;12.10;3.00;;;;;;;15.44;100.00;100821.02;106115;1264;24249;-64
2023/06/24 04:54:00;;;;;;;12.80;3.20;;;;;;;15.44;100.00;100819.95;106084;1278;24255;-59
2023/06/24 04:56:31;;;;;;;13.00;3.90;;;;;;;15.43;100.00;100822.53;106185;1274;24318;-60
2023/06/24 04:59:02;;;;;;;9.40;2.60;;;;;;;15.40;100.00;100826.75;106051;1271;22526;-59
2023/06/24 05:01:33;;;;;;;10.00;2.80;;;;;;;15.38;100.00;100837.02;106141;1271;24317;-56
2023/06/24 05:04:04;;;;;;;12.70;3.10;;;;;;;15.35;100.00;100833.82;105981;1273;23414;-58
2023/06/24 05:06:35;;;;;;;10.00;3.00;;;;;;;15.33;100.00;100839.61;106025;1259;22629;-56
2023/06/24 05:09:06;;;;;;;9.80;2.70;;;;;;;15.30;100.00;100845.19;106005;1278;25451;-58
2023/06/24 05:11:37;;;;;;;14.40;2.80;;;;;;;15.29;100.00;100858.66;106156;1264;22577;-58
2023/06/24 05:14:08;;;;;;;11.00;2.70;;;;;;;15.26;100.00;100854.89;106100;1271;25363;-57
2023/06/24 05:16:39;;;;;;;8.20;1.90;;;;;;;15.24;100.00;100862.09;110131;1264;22333;-59
2023/06/24 05:19:10;;;;;;;7.80;1.90;;;;;;;15.21;100.00;100866.41;110111;1274;22184;-58
2023/06/24 05:21:41;;;;;;;8.40;2.50;;;;;;;15.16;100.00;100869.84;110110;1272;22131;-59
2023/06/24 05:24:11;;;;;;;7.40;1.90;;;;;;;15.13;100.00;100870.61;110092;1267;22213;-59
2023/06/24 05:26:43;;;;;;;9.10;2.50;;;;;;;15.10;100.00;100876.16;110092;1267;22197;-60
2023/06/24 05:29:14;;;;;;;7.20;1.90;;;;;;;15.07;100.00;100877.09;109187;1264;22597;-64
2023/06/24 05:31:46;;;;;;;9.10;2.30;;;;;;;15.04;100.00;100888.73;106056;1271;22616;-59
2023/06/24 05:34:17;;;;;;;8.90;2.00;;;;;;;15.01;100.00;100889.16;105854;1274;22546;-64
2023/06/24 05:36:47;;;;;;;6.50;1.80;;;;;;;14.99;100.00;100889.28;105840;1276;25374;-59
2023/06/24 05:39:19;;;;;;;9.50;2.20;;;;;;;14.99;100.00;100893.88;105824;1264;22570;-58
2023/06/24 05:41:50;;;;;;;7.60;1.90;;;;;;;14.97;100.00;100893.55;105954;1274;22561;-57
2023/06/24 05:44:22;;;;;;;6.20;1.80;;;;;;;14.97;100.00;100893.55;106289;1267;22752;-58
2023/06/24 05:46:53;;;;;;;6.70;1.60;;;;;;;14.94;100.00;100894.02;110114;1271;22174;-61
2023/06/24 05:49:24;;;;;;;7.70;1.50;;;;;;;14.90;100.00;100897.05;110080;1274;22240;-61
2023/06/24 05:51:55;;;;;;;6.20;1.40;;;;;;;14.88;100.00;100895.17;110111;1264;22303;-61
2023/06/24 05:54:26;;;;;;;8.10;1.70;;;;;;;14.89;100.00;100897.60;110099;1272;22978;-61
2023/06/24 05:56:57;;;;;;;6.00;1.30;;;;;;;14.91;100.00;100899.16;110129;1276;22197;-62
2023/06/24 05:59:28;;;;;;;6.00;1.40;;;;;;;14.92;100.00;100903.67;110133;1264;22318;-61
2023/06/24 06:01:59;;;;;;;5.40;1.70;;;;;;;14.94;100.00;100906.30;110119;1278;22721;-62
2023/06/24 06:04:30;;;;;;;7.20;1.80;;;;;;;14.97;100.00;100909.41;110128;1274;22578;-61
2023/06/24 06:07:00;;;;;;;7.20;1.80;;;;;;;15.00;100.00;100910.26;110121;1260;22195;-60
2023/06/24 06:09:31;;;;;;;5.70;1.50;;;;;;;15.03;100.00;100910.09;110116;1272;22991;-59
2023/06/24 06:12:02;;;;;;;5.90;1.70;;;;;;;15.09;100.00;100908.71;110116;1271;22162;-61
2023/06/24 06:14:33;;;;;;;5.70;1.40;;;;;;;15.13;100.00;100911.67;110101;1273;22183;-61
2023/06/24 06:17:04;;;;;;;9.40;2.00;;;;;;;15.16;100.00;100911.12;110129;1273;22540;-61
2023/06/24 06:19:35;;;;;;;10.40;1.80;;;;;;;15.24;100.00;100908.73;110176;1278;22500;-61
2023/06/24 06:22:07;;;;;;;7.40;1.80;;;;;;;15.31;100.00;100911.83;110117;1264;22217;-61
2023/06/24 06:24:38;;;;;;;9.20;2.20;;;;;;;15.36;100.00;100911.16;110136;1273;22184;-61
2023/06/24 06:27:11;;;;;;;8.60;2.00;;;;;;;15.42;100.00;100909.29;110117;1263;22377;-64
2023/06/24 06:29:42;;;;;;;9.90;1.80;;;;;;;15.48;100.00;100912.64;110111;1271;22858;-61
2023/06/24 06:32:13;;;;;;;8.20;2.20;;;;;;;15.56;100.00;100912.97;110129;1263;22290;-61
2023/06/24 06:34:44;;;;;;;9.40;2.20;;;;;;;15.62;100.00;100913.98;110114;1278;22355;-61
2023/06/24 06:37:15;;;;;;;8.80;2.00;;;;;;;15.67;100.00;100913.59;110128;1271;22188;-61
2023/06/24 06:39:46;;;;;;;8.40;2.00;;;;;;;15.72;100.00;100912.00;110087;1270;22577;-58
2023/06/24 06:42:17;;;;;;;8.20;2.40;;;;;;;15.76;100.00;100920.67;109980;1271;22390;-60
2023/06/24 06:44:48;;;;;;;9.50;2.40;;;;;;;15.79;100.00;100921.21;110109;1264;22483;-61
2023/06/24 06:47:18;;;;;;;7.70;2.40;;;;;;;15.82;100.00;100924.00;110112;1271;22336;-61
2023/06/24 06:49:49;;;;;;;9.40;2.50;;;;;;;15.82;100.00;100921.70;110132;1274;22187;-60
2023/06/24 06:52:20;;;;;;;8.20;2.10;;;;;;;15.83;100.00;100925.29;110088;1274;22486;-60
2023/06/24 06:54:51;;;;;;;10.70;3.50;;;;;;;15.82;100.00;100925.91;110114;1273;22239;-60
2023/06/24 06:57:22;;;;;;;7.70;2.40;;;;;;;15.82;100.00;100924.73;110062;1259;22407;-60
2023/06/24 06:59:53;;;;;;;15.40;4.50;;;;;;;15.81;100.00;100930.50;110034;1274;22453;-59
2023/06/24 07:02:24;;;;;;;11.60;3.70;;;;;;;15.80;100.00;100927.46;110068;1263;22187;-61
2023/06/24 07:04:55;;;;;;;13.30;4.70;;;;;;;15.82;100.00;100926.21;110137;1274;23107;-58
2023/06/24 07:07:26;;;;;;;12.40;3.70;;;;;;;15.84;100.00;100926.48;110125;1275;22184;-62
2023/06/24 07:09:58;;;;;;;14.30;4.00;;;;;;;15.84;100.00;100931.45;110123;1271;22382;-61
2023/06/24 07:12:28;;;;;;;14.30;4.40;;;;;;;15.84;100.00;100927.00;110100;1270;22849;-63
2023/06/24 07:14:59;;;;;;;13.70;3.80;;;;;;;15.87;100.00;100926.41;109996;1271;22895;-63
2023/06/24 07:17:30;;;;;;;15.40;5.20;;;;;;;15.89;100.00;100931.27;110038;1274;22308;-62
2023/06/24 07:20:01;;;;;;;10.90;4.20;;;;;;;15.92;100.00;100933.16;109927;1270;22341;-61
2023/06/24 07:22:32;;;;;;;14.30;4.00;;;;;;;15.97;100.00;100935.02;110092;1264;22340;-61
2023/06/24 07:25:03;;;;;;;16.30;5.50;;;;;;;16.00;100.00;100937.21;110103;1264;22243;-62
2023/06/24 07:27:33;;;;;;;10.40;3.30;;;;;;;16.03;100.00;100934.42;110096;1263;22177;-61
2023/06/24 07:30:05;;;;;;;11.80;4.70;;;;;;;16.04;100.00;100933.25;110114;1264;23204;-62
2023/06/24 07:32:36;;;;;;;15.80;4.90;;;;;;;16.06;100.00;100932.30;110092;1267;22983;-61
2023/06/24 07:35:08;;;;;;;12.10;4.80;;;;;;;16.10;100.00;100932.98;110093;1263;22370;-62
2023/06/24 07:37:39;;;;;;;14.80;4.40;;;;;;;16.14;100.00;100931.95;110115;1278;22349;-62
2023/06/24 07:40:11;;;;;;;14.20;4.60;;;;;;;16.17;100.00;100933.14;110123;1267;22184;-62
2023/06/24 07:42:42;;;;;;;12.30;4.10;;;;;;;16.20;100.00;100932.81;110116;1271;23024;-62
2023/06/24 07:45:14;;;;;;;13.60;4.20;;;;;;;16.23;100.00;100934.00;110127;1276;22968;-62
2023/06/24 07:47:46;;;;;;;12.10;4.60;;;;;;;16.27;100.00;100932.25;110127;1271;22336;-61
2023/06/24 07:50:17;;;;;;;12.20;3.90;;;;;;;16.32;100.00;100935.96;110151;1270;22913;-62
2023/06/24 07:52:48;;;;;;;12.20;3.70;;;;;;;16.32;100.00;100938.11;110156;1270;22929;-61
2023/06/24 07:55:19;;;;;;;9.10;3.50;;;;;;;16.33;100.00;100938.23;110134;1264;22850;-61
2023/06/24 07:57:50;;;;;;;12.30;4.40;;;;;;;16.34;100.00;100937.92;107808;1275;24281;-61
2023/06/24 08:00:22;;;;;;;13.70;4.70;;;;;;;16.35;100.00;100936.30;106136;1267;24248;-61
2023/06/24 08:02:53;;;;;;;13.90;4.10;;;;;;;16.39;100.00;100932.84;106116;1277;22605;-61
2023/06/24 08:05:24;;;;;;;14.60;5.60;;;;;;;16.42;100.00;100932.64;106287;1276;22643;-61
2023/06/24 08:07:55;;;;;;;11.40;4.10;;;;;;;16.45;100.00;100933.32;110136;1275;22310;-61
2023/06/24 08:10:26;;;;;;;12.50;3.70;;;;;;;16.46;100.00;100938.20;110153;1264;23088;-61
2023/06/24 08:12:57;;;;;;;12.30;4.00;;;;;;;16.48;100.00;100938.38;110131;1271;22261;-62
2023/06/24 08:15:29;;;;;;;15.60;5.10;;;;;;;16.51;100.00;100938.36;110186;1264;22253;-62
2023/06/24 08:17:59;;;;;;;12.00;4.60;;;;;;;16.53;100.00;100938.83;110114;1276;22399;-61
2023/06/24 08:20:30;;;;;;;12.10;4.10;;;;;;;16.56;100.00;100943.23;110105;1271;22336;-62
2023/06/24 08:23:01;;;;;;;13.10;4.20;;;;;;;16.62;100.00;100949.05;110063;1274;22372;-62
2023/06/24 08:25:32;;;;;;;12.80;5.00;;;;;;;16.66;100.00;100953.52;110110;1264;22335;-62
2023/06/24 08:28:03;;;;;;;13.00;4.50;;;;;;;16.66;100.00;100955.52;110095;1264;22301;-62
2023/06/24 08:30:34;;;;;;;13.80;4.80;;;;;;;16.67;100.00;100957.01;110096;1263;22564;-61
2023/06/24 08:33:05;;;;;;;15.00;5.30;;;;;;;16.69;100.00;100956.66;110089;1271;22136;-61
2023/06/24 08:35:36;;;;;;;12.90;5.80;;;;;;;16.70;100.00;100954.56;110076;1267;22822;-62
2023/06/24 08:38:07;;;;;;;14.40;5.20;;;;;;;16.70;100.00;100959.70;110115;1271;22352;-62
2023/06/24 08:40:39;;;;;;;14.30;4.80;;;;;;;16.72;100.00;100965.29;110105;1264;22442;-61
2023/06/24 08:43:11;;;;;;;13.50;5.80;;;;;;;16.73;100.00;100963.77;110120;1271;22231;-62
2023/06/24 08:45:41;;;;;;;14.60;5.20;;;;;;;16.77;100.00;100964.61;110087;1263;23227;-61
2023/06/24 08:48:14;;;;;;;11.90;4.60;;;;;;;16.80;100.00;100969.64;110131;1271;22150;-62
2023/06/24 08:50:49;;;;;;;13.60;5.40;;;;;;;16.80;100.00;100970.61;110107;1264;22934;-61
2023/06/24 08:53:22;;;;;;;17.30;6.00;;;;;;;16.83;100.00;100968.58;110194;1271;22235;-61
2023/06/24 08:55:55;;;;;;;15.90;4.80;;;;;;;16.86;100.00;100966.84;110045;1267;22174;-61
2023/06/24 08:58:26;;;;;;;13.20;5.30;;;;;;;16.88;100.00;100970.45;110102;1271;22333;-61
2023/06/24 09:00:57;;;;;;;14.80;6.00;;;;;;;16.90;100.00;100970.66;110110;1267;22703;-61
2023/06/24 09:03:28;;;;;;;13.10;4.80;;;;;;;16.92;100.00;100969.75;110111;1267;22281;-61
2023/06/24 09:06:00;;;;;;;14.20;5.00;;;;;;;16.94;100.00;100972.44;110099;1274;22200;-62
2023/06/24 09:08:31;;;;;;;14.40;5.40;;;;;;;16.95;100.00;100971.27;110108;1273;22342;-61
2023/06/24 09:11:03;;;;;;;13.60;6.10;;;;;;;16.98;100.00;100969.17;110104;1267;22237;-63
2023/06/24 09:13:38;;;;;;;15.80;5.80;;;;;;;17.02;100.00;100972.52;110124;1267;22181;-62
2023/06/24 09:16:16;;;;;;;14.90;5.40;;;;;;;17.04;100.00;100972.17;110086;1267;22271;-61
2023/06/24 09:18:52;;;;;;;14.00;5.30;;;;;;;17.06;100.00;100975.05;110129;1265;23012;-61
2023/06/24 09:21:26;;;;;;;14.00;5.60;;;;;;;17.08;100.00;100977.00;109493;1267;22531;-61
2023/06/24 09:23:58;;;;;;;14.10;4.30;;;;;;;17.10;100.00;100980.35;110096;1274;23084;-65
2023/06/24 09:26:30;;;;;;;16.80;5.70;;;;;;;17.11;100.00;100980.35;110087;1271;22200;-62
2023/06/24 09:29:01;;;;;;;13.50;5.00;;;;;;;17.11;100.00;100977.07;110087;1271;22166;-62
2023/06/24 09:31:32;;;;;;;12.30;5.00;;;;;;;17.14;100.00;100973.02;110092;1264;22320;-61
2023/06/24 09:34:03;;;;;;;16.00;5.50;;;;;;;17.18;100.00;100967.81;110006;1269;22260;-61
2023/06/24 09:36:34;;;;;;;12.40;4.40;;;;;;;17.23;100.00;100972.70;110141;1271;22964;-61
2023/06/24 09:39:08;;;;;;;14.20;5.50;;;;;;;17.27;100.00;100971.29;110119;1264;22279;-61
2023/06/24 09:41:42;;;;;;;14.90;5.60;;;;;;;17.33;100.00;100971.77;110124;1268;23263;-61
2023/06/24 09:44:14;;;;;;;16.20;6.90;;;;;;;17.39;100.00;100970.86;110109;1271;23354;-61
2023/06/24 09:46:46;;;;;;;15.30;5.80;;;;;;;17.45;100.00;100970.41;110134;1263;22152;-61
2023/06/24 09:49:17;;;;;;;13.10;4.80;;;;;;;17.51;100.00;100964.80;110155;1276;22185;-61
2023/06/24 09:51:49;;;;;;;15.10;5.50;;;;;;;17.56;100.00;100961.59;110133;1267;22776;-61
2023/06/24 09:54:21;;;;;;;14.40;6.10;;;;;;;17.62;99.99;100961.76;110112;1274;22164;-61
2023/06/24 09:56:53;;;;;;;22.30;6.60;;;;;;;17.70;100.00;100957.05;110081;1271;23930;-62
2023/06/24 09:59:24;;;;;;;13.60;4.80;;;;;;;17.80;99.92;100963.64;110088;1271;22245;-62
2023/06/24 10:01:56;;;;;;;16.00;6.40;;;;;;;17.88;99.84;100962.61;110139;1265;22375;-62
2023/06/24 10:04:31;;;;;;;17.00;6.40;;;;;;;17.98;99.18;100961.59;110144;1273;22260;-62
2023/06/24 10:07:02;;;;;;;13.90;5.80;;;;;;;18.07;98.82;100960.86;110110;1264;22130;-62
2023/06/24 10:09:33;;;;;;;13.60;6.10;;;;;;;18.15;98.77;100961.29;110113;1276;23104;-62
2023/06/24 10:12:04;;;;;;;16.10;6.80;;;;;;;18.23;98.38;100966.46;110126;1264;22142;-62
2023/06/24 10:14:56;;;;;;;19.70;7.30;;;;;;;18.29;98.43;100963.28;110110;1274;22167;-61
2023/06/24 10:17:27;;;;;;;17.70;7.80;;;;;;;18.33;98.35;100963.38;110120;1263;22262;-62
2023/06/24 10:19:58;;;;;;;21.70;8.20;;;;;;;18.38;98.68;100958.90;110134;1264;23006;-62
2023/06/24 10:22:32;;;;;;;15.80;7.00;;;;;;;18.44;98.37;100963.38;110101;1279;22202;-62
2023/06/24 10:25:06;;;;;;;16.10;8.40;;;;;;;18.44;97.32;100964.16;110094;1264;22184;-62
2023/06/24 10:27:42;;;;;;;19.70;7.90;;;;;;;18.45;97.24;100960.26;110112;1273;22341;-62
2023/06/24 10:30:20;;;;;;;17.50;8.10;;;;;;;18.47;97.53;100963.02;110104;1264;22873;-62
2023/06/24 10:32:54;;;;;;;14.80;6.00;;;;;;;18.49;95.91;100959.94;110090;1276;22398;-61
2023/06/24 10:35:31;;;;;;;16.90;7.50;;;;;;;18.53;96.24;100957.27;107592;1264;23167;-61
2023/06/24 10:38:03;;;;;;;20.20;8.00;;;;;;;18.60;96.86;100956.17;110109;1271;22287;-62
2023/06/24 10:40:50;;;;;;;16.40;7.20;;;;;;;18.67;96.58;100957.90;108215;1275;22531;-61
2023/06/24 10:43:31;;;;;;;16.40;6.90;;;;;;;18.73;95.90;100955.56;106031;1272;24272;-60
2023/06/24 10:46:02;;;;;;;16.10;7.40;;;;;;;18.76;95.71;100954.12;106008;1271;22551;-60
2023/06/24 10:48:32;;;;;;;17.10;7.70;;;;;;;18.81;95.69;100957.34;106040;1264;22580;-60
2023/06/24 10:51:04;;;;;;;20.70;7.80;;;;;;;18.84;95.33;100961.65;105841;1279;22517;-60
2023/06/24 10:53:35;;;;;;;19.90;7.70;;;;;;;18.85;94.68;100959.48;105984;1265;23413;-60
2023/06/24 10:56:06;;;;;;;14.50;7.10;;;;;;;18.87;94.77;100958.66;106174;1264;22621;-61
2023/06/24 10:58:37;;;;;;;17.00;7.30;;;;;;;18.91;94.67;100959.98;110114;1276;23062;-61
2023/06/24 11:01:15;;;;;;;17.50;7.10;;;;;;;18.96;94.99;100962.07;110072;1274;22542;-61
2023/06/24 11:03:54;;;;;;;15.60;6.40;;;;;;;19.04;94.49;100960.91;110084;1271;22478;-61
2023/06/24 11:06:25;;;;;;;19.80;6.40;;;;;;;19.07;93.77;100959.77;110110;1264;22207;-61
2023/06/24 11:09:04;;;;;;;16.10;6.70;;;;;;;19.12;93.70;100957.98;110105;1271;22607;-61
2023/06/24 11:11:35;;;;;;;14.70;6.70;;;;;;;19.17;93.00;100951.55;110103;1267;22356;-61
2023/06/24 11:14:06;;;;;;;11.70;4.80;;;;;;;19.22;92.03;100950.48;110125;1263;22439;-61
2023/06/24 11:16:38;;;;;;;13.50;4.90;;;;;;;19.27;91.51;100951.75;106019;1266;5406854;-61
2023/06/24 11:19:09;;;;;;;12.30;5.70;;;;;;;19.31;91.13;100949.30;110131;1267;22392;-61
2023/06/24 11:21:41;;;;;;;16.00;6.10;;;;;;;19.34;90.28;100952.81;110139;1264;23048;-61
2023/06/24 11:24:13;;;;;;;14.40;6.10;;;;;;;19.37;90.70;100949.70;110115;1265;22282;-62
2023/06/24 11:26:43;;;;;;;12.90;5.60;;;;;;;19.43;90.32;100940.41;110134;1266;22146;-61